This is the latest recevied weather packets stored in our database for station/object OH1KK. If no packets are shown the sender has not sent any weather packets the latest 10 day(s).
| Time | Temp. | Humidity | Pressure | Rain* | Wind** | Luminosity | Snow |
|---|---|---|---|---|---|---|---|
| 1778170753 | 6.11° C | 72% | 1008.5 hPa | 0 mm | - | - | - |
| 1778169899 | 6.11° C | 73% | 1008.5 hPa | 0 mm | - | - | - |
| 1778168984 | 5.56° C | 79% | 1008.3 hPa | 0 mm | - | - | - |
| 1778168069 | 5° C | 76% | 1008.2 hPa | 0 mm | - | - | - |
| 1778165385 | 6.11° C | 68% | 1007.9 hPa | 0 mm | - | - | - |
| 1778164469 | 7.78° C | 48% | 1007.6 hPa | 0 mm | - | - | - |
| 1778162700 | 8.33° C | 46% | 1007 hPa | 0 mm | - | - | - |
| 1778161786 | 6.67° C | 48% | 1007.2 hPa | 0 mm | - | - | - |
| 1778160871 | 7.78° C | 43% | 1007.1 hPa | 0 mm | - | - | - |
| 1778159955 | 8.33° C | 43% | 1006.9 hPa | 0 mm | - | - | - |
| 1778157271 | 9.44° C | 34% | 1006.9 hPa | 0 mm | - | - | - |
| 1778153672 | 10° C | 38% | 1007.2 hPa | 0 mm | - | - | - |
| 1778151842 | 8.89° C | 37% | 1007.2 hPa | 0 mm | - | - | - |
| 1778150987 | 8.89° C | 39% | 1007.6 hPa | 0 mm | - | - | - |
| 1778150072 | 8.33° C | 42% | 1007.4 hPa | 0 mm | - | - | - |
| 1778149158 | 8.33° C | 42% | 1007.7 hPa | 0 mm | - | - | - |
| 1778148242 | 7.78° C | 43% | 1007.6 hPa | 0 mm | - | - | - |
| 1778147388 | 8.33° C | 43% | 1007.7 hPa | 0 mm | - | - | - |
| 1778145557 | 7.78° C | 44% | 1007.9 hPa | 0 mm | - | - | - |
| 1778141043 | 7.78° C | 57% | 1008.1 hPa | 0 mm | - | - | - |
| 1778140189 | 7.78° C | 56% | 1008 hPa | 0 mm | - | - | - |
| 1778139274 | 7.78° C | 56% | 1007.9 hPa | 0 mm | - | - | - |
| 1778137443 | 7.22° C | 55% | 1007.9 hPa | 0 mm | - | - | - |
| 1778136591 | 6.67° C | 57% | 1007.7 hPa | 0 mm | - | - | - |
| 1778135675 | 6.67° C | 57% | 1007.8 hPa | 0 mm | - | - | - |
* Rain latest hour (hover to see other rain measurements)
** Current wind speed in m/s (hover to see current wind gust speed)